メインページ
METAR-TAF:

METAR-TAF

空港 :

チタ, ロシア

カダラ空港

緯度: 52-05N, 経度: 113-29E, 海抜: 685m

現時点の気象観測

当レポートは38分前の12:30(UTC)に作成
北西の風 4kt
気温 -25°C
湿度 76%
気圧 1013 hPa
視程: 9000m

METAR: UIAA 241230Z 31002MPS 9000 NSC M25/M28 Q1013 R29/70D NOSIG RMK QFE701/0935

時間: 22:08 (13:08 UTC)

予報

当レポートは2時間8分前の11:00(UTC)に作成
予報は24日の 12時(UTC)から 25日の 12時(UTC)まで有効
西/北西の風 6kt
視程10km以上

TAF: UIAA 241100Z 2412/2512 30003MPS 9999 NSC

4,000以上の空港の気象観測と天気予報(METAR報とTAF報)

利用可能な観測所は地図上に黄色い丸と赤い丸で示す。

丸の上にカーソルを重ねると観測所名を参照できる。

次にクリックすると気象観測と天気予報を参照できる。

マップの切り替え:黒色「×」印の緑ボタンをクリックして拡大、「-」印の緑ボタンをクリックして縮小、緑色の三角印をクリックして隣りの地図に切り替え


METAR-TAF: